SBSL/SLZ METAR and TAF weather

Enter ICAO airport designator
Station Type Date Time Source
SBSL METAR 2021/09/28 16:00 UTC NOAA

SBSL 281600Z 04015KT 9999 BKN025 FEW027TCU 32/23 Q1011


Station Type Date Time Source
SBSL Decoded METAR 2021/09/28 16:00 UTC NOAA

Sao Luiz Aeroporto , Brazil (SBSL) 02-36S 044-14W 53M
Sep 28, 2021 - 12:00 PM EDT / 2021.09.28 1600 UTC
Wind: from the NE (040 degrees) at 17 MPH (15 KT):0
Visibility: greater than 7 mile(s):0
Sky conditions: mostly cloudy
Weather: Towering cumulus clouds observed
Temperature: 89 F (32 C)
Heat index: 96.8 F (36.0 C):1
Dew Point: 73 F (23 C)
Relative Humidity: 59%
Pressure (altimeter): 29.85 in. Hg (1011 hPa)
ob: SBSL 281600Z 04015KT 9999 BKN025 FEW027TCU 32/23 Q1011
cycle: 16

Station Type Date Time Source
SBSL TAF 2021/09/28 12:12 UTC NOAA

TAF SBSL 280900Z 2812/2912 06010KT 9999 FEW020 TN27/2908Z TX29/2912Z
BECMG 2815/2817 03015KT BKN020 FEW035TCU
TEMPO 2817/2824 4000 TSRA BKN015 FEW025CB
BECMG 2900/2902 04005KT FEW020
BECMG 2910/2912 06010KT
RMK PGY

Example: see airport list